Time;durP1;ratioP1;P1;durP2;ratioP2;P2;SDS_P1;SDS_P2;PMS_P1;PMS_P2;Temp;Humidity;BMP_temperature;BMP_pressure;BME280_temperature;BME280_humidity;BME280_pressure;Samples;Min_cycle;Max_cycle;Signal;HPM_P1;HPM_P2
2022/08/23 00:01:59;;;;;;;6.47;3.42;;;20.30;99.90;;;;;;5032291;28;20653;-76
2022/08/23 00:04:28;;;;;;;7.07;3.67;;;20.30;99.90;;;;;;5031814;28;20265;-76
2022/08/23 00:06:56;;;;;;;7.25;3.50;;;20.30;99.90;;;;;;5031785;28;20550;-79
2022/08/23 00:09:25;;;;;;;5.40;3.83;;;20.20;99.90;;;;;;5032240;28;20202;-76
2022/08/23 00:11:55;;;;;;;6.90;3.63;;;20.20;99.90;;;;;;5032074;28;20476;-76
2022/08/23 00:14:26;;;;;;;3.90;2.75;;;20.10;99.90;;;;;;5030488;28;20238;-77
2022/08/23 00:16:53;;;;;;;4.40;3.10;;;20.20;99.90;;;;;;5032045;28;20257;-77
2022/08/23 00:19:22;;;;;;;5.50;3.20;;;20.10;99.90;;;;;;5031943;28;20211;-79
2022/08/23 00:21:51;;;;;;;5.55;3.28;;;20.10;99.90;;;;;;5031699;28;20198;-79
2022/08/23 00:24:18;;;;;;;2.95;2.60;;;20.00;99.90;;;;;;5032102;28;20206;-79
2022/08/23 00:26:50;;;;;;;3.28;2.60;;;20.00;99.90;;;;;;5032361;28;20316;-79
2022/08/23 00:29:17;;;;;;;4.80;3.13;;;20.00;99.90;;;;;;5031414;28;20217;-79
2022/08/23 00:31:45;;;;;;;3.83;2.50;;;19.90;99.90;;;;;;5032269;28;20260;-78
2022/08/23 00:34:12;;;;;;;4.30;3.00;;;19.90;99.90;;;;;;5031337;28;20298;-79
2022/08/23 00:36:41;;;;;;;3.88;2.78;;;19.80;99.90;;;;;;5032325;28;20198;-79
2022/08/23 00:39:08;;;;;;;3.95;3.15;;;19.70;99.90;;;;;;5032694;28;20206;-78
2022/08/23 00:41:35;;;;;;;3.63;3.08;;;19.70;99.90;;;;;;5033034;28;20249;-79
2022/08/23 00:49:39;;;;;;;4.43;3.15;;;19.60;99.90;;;;;;5044895;28;20607;-77
2022/08/23 00:52:11;;;;;;;3.30;2.70;;;19.50;99.90;;;;;;5058265;28;20201;-76
2022/08/23 00:54:40;;;;;;;5.35;2.95;;;19.50;99.90;;;;;;5036353;28;20218;-77
2022/08/23 00:57:10;;;;;;;4.93;3.15;;;19.50;99.90;;;;;;5032816;28;20233;-78
2022/08/23 00:59:37;;;;;;;3.22;2.80;;;19.50;99.90;;;;;;5031731;28;20213;-79
2022/08/23 01:02:06;;;;;;;3.42;2.95;;;19.50;99.90;;;;;;5031256;28;20223;-75
2022/08/23 01:04:39;;;;;;;3.70;2.80;;;19.50;99.90;;;;;;5031279;28;20253;-77
2022/08/23 01:07:16;;;;;;;4.90;3.35;;;19.60;99.90;;;;;;5031480;28;20221;-76
2022/08/23 01:09:45;;;;;;;4.07;3.30;;;19.50;99.90;;;;;;5031162;28;20204;-76
2022/08/23 01:12:18;;;;;;;6.72;3.22;;;19.60;99.90;;;;;;5031558;28;20206;-77
2022/08/23 01:14:51;;;;;;;4.13;3.20;;;19.60;99.90;;;;;;5031416;28;20252;-75
2022/08/23 01:17:23;;;;;;;4.22;3.33;;;19.60;99.90;;;;;;5030474;28;20195;-77
2022/08/23 01:19:54;;;;;;;4.00;3.15;;;19.60;99.90;;;;;;5031320;28;20777;-75
2022/08/23 01:22:29;;;;;;;3.47;3.15;;;19.60;99.90;;;;;;5031270;28;20477;-76
2022/08/23 01:24:58;;;;;;;4.32;3.22;;;19.60;99.90;;;;;;5031631;28;20248;-76
2022/08/23 01:27:26;;;;;;;4.50;2.97;;;19.60;99.90;;;;;;5035060;28;20218;-77
2022/08/23 01:29:52;;;;;;;4.80;3.00;;;19.60;99.90;;;;;;5035103;28;20225;-77
2022/08/23 01:32:20;;;;;;;6.85;3.38;;;19.60;99.90;;;;;;5033995;28;20418;-79
2022/08/23 01:34:46;;;;;;;6.13;3.47;;;19.70;99.90;;;;;;5034939;28;20210;-78
2022/08/23 01:37:14;;;;;;;7.20;3.30;;;19.60;99.90;;;;;;5034249;28;20206;-77
2022/08/23 01:39:41;;;;;;;7.32;4.00;;;19.70;99.90;;;;;;5034837;28;20266;-79
2022/08/23 01:42:10;;;;;;;6.03;3.88;;;19.70;99.90;;;;;;5034707;28;20621;-77
2022/08/23 01:44:36;;;;;;;5.63;3.45;;;19.70;99.90;;;;;;5034146;28;20199;-78
2022/08/23 01:47:04;;;;;;;3.85;3.15;;;19.70;99.90;;;;;;5034841;28;20497;-76
2022/08/23 01:49:33;;;;;;;3.70;3.10;;;19.60;99.90;;;;;;5034573;28;20194;-76
2022/08/23 01:52:00;;;;;;;7.05;3.80;;;19.60;99.90;;;;;;5033790;28;20789;-77
2022/08/23 01:54:28;;;;;;;6.25;3.65;;;19.60;99.90;;;;;;5034479;28;20201;-76
2022/08/23 01:56:55;;;;;;;4.45;3.35;;;19.60;99.90;;;;;;5034580;28;20218;-77
2022/08/23 01:59:24;;;;;;;4.30;3.08;;;19.60;99.90;;;;;;5033345;28;20293;-79
2022/08/23 02:01:51;;;;;;;5.45;3.05;;;19.60;99.90;;;;;;5034582;28;20256;-77
2022/08/23 02:04:18;;;;;;;4.07;2.90;;;19.50;99.90;;;;;;5034185;28;20206;-78
2022/08/23 02:06:45;;;;;;;3.75;3.22;;;19.50;99.90;;;;;;5033493;28;20487;-78
2022/08/23 02:09:12;;;;;;;3.25;2.83;;;19.50;99.90;;;;;;5034273;28;20198;-79
2022/08/23 02:11:42;;;;;;;3.38;2.60;;;19.40;99.90;;;;;;5034213;28;20203;-79
2022/08/23 02:14:11;;;;;;;3.63;3.30;;;19.40;99.90;;;;;;5033704;28;20958;-78
2022/08/23 02:16:44;;;;;;;3.60;3.05;;;19.30;99.90;;;;;;5034191;28;20202;-78
2022/08/23 02:19:12;;;;;;;3.35;2.90;;;19.30;99.90;;;;;;5034260;28;20191;-78
2022/08/23 02:21:40;;;;;;;3.55;3.25;;;19.30;99.90;;;;;;5033292;28;20212;-79
2022/08/23 02:24:10;;;;;;;4.03;3.15;;;19.20;99.90;;;;;;5039622;28;20206;-78
2022/08/23 02:26:38;;;;;;;4.90;3.42;;;19.20;99.90;;;;;;5053672;28;20202;-79
2022/08/23 02:29:06;;;;;;;2.70;2.30;;;19.20;99.90;;;;;;5053826;28;20221;-78
2022/08/23 02:31:33;;;;;;;3.75;3.35;;;19.20;99.90;;;;;;5041824;28;20207;-78
2022/08/23 02:34:02;;;;;;;3.17;2.88;;;19.20;99.90;;;;;;5032751;28;20525;-79
2022/08/23 02:36:28;;;;;;;5.93;3.22;;;19.20;99.90;;;;;;5033410;28;20199;-79
2022/08/23 02:38:56;;;;;;;4.43;3.22;;;19.20;99.90;;;;;;5033950;28;20206;-79
2022/08/23 02:41:23;;;;;;;5.60;3.53;;;19.20;99.90;;;;;;5032638;28;20211;-78
2022/08/23 02:43:51;;;;;;;5.40;4.07;;;19.20;99.90;;;;;;5033369;28;20595;-79
2022/08/23 02:46:18;;;;;;;5.75;4.32;;;19.20;99.90;;;;;;5033592;28;20210;-79
2022/08/23 02:48:45;;;;;;;6.13;4.25;;;19.20;99.90;;;;;;5033399;28;20218;-79
2022/08/23 02:51:15;;;;;;;7.07;4.07;;;19.20;99.90;;;;;;5033274;28;20187;-79
2022/08/23 02:53:42;;;;;;;5.70;3.58;;;19.20;99.90;;;;;;5033741;28;20210;-79
2022/08/23 02:56:10;;;;;;;5.38;3.85;;;19.20;99.90;;;;;;5033160;28;20210;-78
2022/08/23 02:58:38;;;;;;;5.38;3.38;;;19.20;99.90;;;;;;5033605;28;20191;-79
2022/08/23 03:01:05;;;;;;;6.80;3.90;;;19.20;99.90;;;;;;5033443;28;20202;-76
2022/08/23 03:03:32;;;;;;;4.22;3.53;;;19.20;99.90;;;;;;5032552;28;20213;-78
2022/08/23 03:05:59;;;;;;;4.78;3.78;;;19.20;99.90;;;;;;5032940;28;20197;-78
2022/08/23 03:08:27;;;;;;;4.97;3.10;;;19.20;99.90;;;;;;5033568;28;20568;-78
2022/08/23 03:10:55;;;;;;;4.32;3.50;;;19.20;99.90;;;;;;5032609;28;20203;-78
2022/08/23 03:13:22;;;;;;;4.93;3.33;;;19.20;99.90;;;;;;5033480;28;20190;-78
2022/08/23 03:15:49;;;;;;;3.17;2.97;;;19.20;99.90;;;;;;5032371;28;20325;-78
2022/08/23 03:18:16;;;;;;;4.50;3.05;;;19.20;99.90;;;;;;5032902;28;20286;-78
2022/08/23 03:20:43;;;;;;;3.80;3.05;;;19.20;99.90;;;;;;5033059;28;20217;-79
2022/08/23 03:23:10;;;;;;;4.22;3.45;;;19.20;99.90;;;;;;5032549;28;20242;-76
2022/08/23 03:25:39;;;;;;;3.85;3.05;;;19.20;99.90;;;;;;5032937;28;20213;-76
2022/08/23 03:28:07;;;;;;;4.85;3.90;;;19.20;99.90;;;;;;5032773;28;20223;-77
2022/08/23 03:30:34;;;;;;;5.30;4.15;;;19.20;99.90;;;;;;5031807;28;20202;-76
2022/08/23 03:33:01;;;;;;;4.07;3.30;;;19.20;99.90;;;;;;5032113;28;20204;-78
2022/08/23 03:35:28;;;;;;;5.35;3.50;;;19.20;99.90;;;;;;5032106;28;20203;-78
2022/08/23 03:37:56;;;;;;;5.13;3.70;;;19.20;99.90;;;;;;5032164;28;20201;-77
2022/08/23 03:40:23;;;;;;;4.50;3.78;;;19.20;99.90;;;;;;5032612;28;20199;-78
2022/08/23 03:42:52;;;;;;;4.07;3.38;;;19.20;99.90;;;;;;5032110;28;20207;-79
2022/08/23 03:45:19;;;;;;;3.22;3.00;;;19.20;99.90;;;;;;5032047;28;20186;-79
2022/08/23 03:47:46;;;;;;;3.75;3.30;;;19.20;99.90;;;;;;5032373;28;20232;-79
2022/08/23 03:50:13;;;;;;;5.70;3.10;;;19.20;99.90;;;;;;5031901;28;20205;-78
2022/08/23 03:52:39;;;;;;;5.88;3.53;;;19.20;99.90;;;;;;5031427;28;20202;-79
2022/08/23 03:55:07;;;;;;;4.95;3.67;;;19.20;99.90;;;;;;5032627;28;20203;-79
2022/08/23 03:57:34;;;;;;;3.83;3.38;;;19.20;99.90;;;;;;5032333;28;20555;-76
2022/08/23 04:00:03;;;;;;;5.70;3.90;;;19.20;99.90;;;;;;5031481;28;20265;-79
2022/08/23 04:02:30;;;;;;;4.72;3.80;;;19.20;99.90;;;;;;5031773;28;20298;-78
2022/08/23 04:04:56;;;;;;;7.43;5.25;;;19.20;99.90;;;;;;5031685;28;20199;-78
2022/08/23 04:07:24;;;;;;;6.75;4.40;;;19.20;99.90;;;;;;5032522;28;20207;-79
2022/08/23 04:09:51;;;;;;;6.00;4.82;;;19.20;99.90;;;;;;5031817;28;20297;-79
2022/08/23 04:12:18;;;;;;;5.50;4.05;;;19.20;99.90;;;;;;5031401;28;20222;-79
2022/08/23 04:14:45;;;;;;;4.45;3.88;;;19.20;99.90;;;;;;5032086;28;20239;-79
2022/08/23 04:17:14;;;;;;;4.80;4.40;;;19.20;99.90;;;;;;5032107;28;20202;-78
2022/08/23 04:19:41;;;;;;;5.97;4.32;;;19.20;99.90;;;;;;5031205;28;20607;-79
2022/08/23 04:22:12;;;;;;;4.93;4.40;;;19.20;99.90;;;;;;5031726;28;20220;-79
2022/08/23 04:24:39;;;;;;;5.03;4.45;;;19.20;99.90;;;;;;5032155;28;20218;-79
2022/08/23 04:27:07;;;;;;;5.47;4.18;;;19.20;99.90;;;;;;5031405;28;20195;-79
2022/08/23 04:29:34;;;;;;;5.13;4.00;;;19.20;99.90;;;;;;5031858;28;20227;-78
2022/08/23 04:32:01;;;;;;;5.30;3.92;;;19.20;99.90;;;;;;5032318;28;20202;-78
2022/08/23 04:34:33;;;;;;;5.20;4.22;;;19.20;99.90;;;;;;5030714;28;20252;-79
2022/08/23 04:37:00;;;;;;;7.05;4.30;;;19.20;99.90;;;;;;5031809;28;20229;-81
2022/08/23 04:39:27;;;;;;;5.25;3.85;;;19.20;99.90;;;;;;5031965;28;20294;-77
2022/08/23 04:44:39;;;;;;;4.15;3.75;;;19.20;99.90;;;;;;5031755;28;20356;-79
2022/08/23 04:47:07;;;;;;;4.93;3.83;;;19.20;99.90;;;;;;5032789;28;20209;-78
2022/08/23 04:49:35;;;;;;;5.20;4.22;;;19.20;99.90;;;;;;5051723;28;20217;-79
2022/08/23 04:52:02;;;;;;;4.10;3.70;;;19.20;99.90;;;;;;5051616;28;20281;-79
2022/08/23 04:54:30;;;;;;;6.63;3.97;;;19.20;99.90;;;;;;5047082;28;20917;-79
2022/08/23 04:56:57;;;;;;;5.20;4.10;;;19.20;99.90;;;;;;5031463;28;20548;-79
2022/08/23 04:59:24;;;;;;;3.80;3.50;;;19.20;99.90;;;;;;5031686;28;20668;-79
2022/08/23 05:01:52;;;;;;;3.75;3.45;;;19.20;99.90;;;;;;5034981;28;20198;-80
2022/08/23 05:04:19;;;;;;;6.38;4.47;;;19.20;99.90;;;;;;5035154;28;20587;-79
2022/08/23 05:06:47;;;;;;;4.68;3.88;;;19.20;99.90;;;;;;5035007;28;20198;-78
2022/08/23 05:09:15;;;;;;;4.30;3.90;;;19.20;99.90;;;;;;5034644;28;20228;-78
2022/08/23 05:11:41;;;;;;;4.93;4.43;;;19.20;99.90;;;;;;5035907;28;20203;-78
2022/08/23 05:14:08;;;;;;;4.25;3.83;;;19.20;99.90;;;;;;5035308;28;20254;-77
2022/08/23 05:16:35;;;;;;;5.18;4.38;;;19.20;99.90;;;;;;5034523;28;20285;-79
2022/08/23 05:19:02;;;;;;;4.50;4.10;;;19.20;99.90;;;;;;5035198;28;20233;-77
2022/08/23 05:21:29;;;;;;;4.40;3.65;;;19.20;99.90;;;;;;5034952;28;20228;-76
2022/08/23 05:23:57;;;;;;;4.25;3.92;;;19.20;99.90;;;;;;5034664;28;20205;-77
2022/08/23 05:26:24;;;;;;;4.30;3.90;;;19.20;99.90;;;;;;5035373;28;20205;-77
2022/08/23 05:28:51;;;;;;;3.75;3.35;;;19.20;99.90;;;;;;5034918;28;20623;-77
2022/08/23 05:31:20;;;;;;;5.10;4.20;;;19.30;99.90;;;;;;5034294;28;20497;-78
2022/08/23 05:33:48;;;;;;;4.97;4.03;;;19.30;99.90;;;;;;5034678;28;20234;-79
2022/08/23 05:36:17;;;;;;;5.88;4.25;;;19.30;99.90;;;;;;5035257;28;20195;-77
2022/08/23 05:38:45;;;;;;;5.50;4.53;;;19.30;99.90;;;;;;5033810;28;20241;-79
2022/08/23 05:41:15;;;;;;;6.32;5.68;;;19.30;99.90;;;;;;5034793;28;20285;-78
2022/08/23 05:43:42;;;;;;;6.38;5.15;;;19.40;99.90;;;;;;5033977;28;20203;-81
2022/08/23 05:46:11;;;;;;;6.38;5.22;;;19.40;99.90;;;;;;5034594;28;20206;-77
2022/08/23 05:48:39;;;;;;;8.35;4.72;;;19.40;99.90;;;;;;5034487;28;20249;-80
2022/08/23 05:51:11;;;;;;;5.28;4.70;;;19.50;99.90;;;;;;5034274;28;20211;-80
2022/08/23 05:53:40;;;;;;;6.93;4.25;;;19.50;99.90;;;;;;5034619;28;20286;-79
2022/08/23 05:56:11;;;;;;;5.93;4.53;;;19.50;99.90;;;;;;5034625;28;20195;-79
2022/08/23 05:58:40;;;;;;;8.40;5.43;;;19.60;99.90;;;;;;5034070;28;20194;-79
2022/08/23 06:01:07;;;;;;;5.03;4.25;;;19.60;99.90;;;;;;5034316;28;20290;-79
2022/08/23 06:03:34;;;;;;;5.40;4.30;;;19.60;99.90;;;;;;5034428;28;20198;-79
2022/08/23 06:06:02;;;;;;;6.63;4.30;;;19.70;99.90;;;;;;5033491;28;20220;-78
2022/08/23 06:08:29;;;;;;;8.18;4.60;;;19.70;99.90;;;;;;5034015;28;20643;-78
2022/08/23 06:11:01;;;;;;;5.10;4.22;;;19.70;99.90;;;;;;5033986;28;20204;-77
2022/08/23 06:13:27;;;;;;;5.78;4.50;;;19.70;99.90;;;;;;5037704;28;20194;-79
2022/08/23 06:15:56;;;;;;;5.30;4.18;;;19.70;99.90;;;;;;5044446;28;20232;-79
2022/08/23 06:18:23;;;;;;;9.50;5.85;;;19.70;99.90;;;;;;5046261;28;20662;-79
2022/08/23 06:21:00;;;;;;;5.55;4.45;;;19.70;99.90;;;;;;5044227;28;20211;-79
2022/08/23 06:23:27;;;;;;;4.40;3.97;;;19.70;99.90;;;;;;5042691;28;20255;-79
2022/08/23 06:25:53;;;;;;;4.38;3.92;;;19.70;99.90;;;;;;5050035;28;20595;-79
2022/08/23 06:28:20;;;;;;;4.28;3.95;;;19.70;99.90;;;;;;5042802;28;20298;-78
2022/08/23 06:30:47;;;;;;;5.50;3.83;;;19.70;99.90;;;;;;5034200;28;20217;-78
2022/08/23 06:33:16;;;;;;;6.30;4.47;;;19.70;99.90;;;;;;5032832;28;20198;-79
2022/08/23 06:35:43;;;;;;;8.55;5.60;;;19.70;99.90;;;;;;5033889;28;20512;-78
2022/08/23 06:38:10;;;;;;;6.70;5.10;;;19.70;99.90;;;;;;5033498;28;20205;-79
2022/08/23 06:40:37;;;;;;;6.40;5.30;;;19.80;99.90;;;;;;5032635;28;20201;-79
2022/08/23 06:43:04;;;;;;;7.05;5.22;;;19.80;99.90;;;;;;5033657;28;20195;-79
2022/08/23 06:45:32;;;;;;;9.63;6.40;;;19.90;99.90;;;;;;5039213;28;20296;-79
2022/08/23 06:47:59;;;;;;;6.00;5.28;;;19.90;99.90;;;;;;5051370;28;20674;-79
2022/08/23 06:50:27;;;;;;;7.15;5.13;;;20.00;99.90;;;;;;5051578;28;20236;-80
2022/08/23 06:52:54;;;;;;;8.02;5.10;;;20.10;99.90;;;;;;5052918;28;20202;-79
2022/08/23 06:55:21;;;;;;;7.10;4.25;;;20.10;99.90;;;;;;5049269;28;20210;-81
2022/08/23 06:57:48;;;;;;;7.72;5.45;;;20.30;99.90;;;;;;5053088;28;20656;-78
2022/08/23 07:00:15;;;;;;;10.70;5.57;;;20.40;99.90;;;;;;5046838;28;20512;-80
2022/08/23 07:02:42;;;;;;;7.97;4.47;;;20.50;99.90;;;;;;5041150;28;20194;-80
2022/08/23 07:05:09;;;;;;;9.88;5.30;;;20.70;99.90;;;;;;5047458;28;20596;-82
2022/08/23 07:07:37;;;;;;;6.57;4.22;;;21.00;99.90;;;;;;5053177;28;20202;-81
2022/08/23 07:10:05;;;;;;;9.70;4.72;;;21.30;99.90;;;;;;5049802;28;20230;-81
2022/08/23 07:12:32;;;;;;;6.90;3.75;;;21.50;99.90;;;;;;5053581;28;20205;-80
2022/08/23 07:14:59;;;;;;;8.05;4.15;;;21.70;99.90;;;;;;5051310;28;20709;-80
2022/08/23 07:17:26;;;;;;;9.77;4.57;;;22.00;99.90;;;;;;5038282;28;20226;-83
2022/08/23 07:19:53;;;;;;;6.38;3.70;;;22.20;99.90;;;;;;5033943;28;20211;-81
2022/08/23 07:22:20;;;;;;;8.45;4.18;;;22.30;99.90;;;;;;5032689;28;20722;-82
2022/08/23 07:24:48;;;;;;;6.53;3.70;;;22.60;99.90;;;;;;5032695;28;20245;-80
2022/08/23 07:27:15;;;;;;;7.32;3.25;;;23.00;99.90;;;;;;5036898;28;20209;-76
2022/08/23 07:29:42;;;;;;;8.63;4.10;;;23.30;99.90;;;;;;5033966;28;20233;-81
2022/08/23 07:32:09;;;;;;;5.78;3.63;;;23.60;98.10;;;;;;5033299;28;20396;-81
2022/08/23 07:34:37;;;;;;;4.63;3.17;;;23.80;45.80;;;;;;5032233;28;20222;-80
2022/08/23 07:37:06;;;;;;;5.50;2.63;;;24.00;38.60;;;;;;5045180;28;20201;-81
2022/08/23 07:39:34;;;;;;;6.13;3.58;;;24.30;34.20;;;;;;5046601;28;20225;-82
2022/08/23 07:42:04;;;;;;;4.53;2.95;;;24.40;1.00;;;;;;5048559;28;20567;-82
2022/08/23 07:44:33;;;;;;;4.10;2.70;;;24.40;1.00;;;;;;5048679;28;20359;-80
2022/08/23 07:46:59;;;;;;;6.88;2.88;;;24.40;3.70;;;;;;5048499;28;20210;-79
2022/08/23 07:49:26;;;;;;;4.65;2.40;;;24.40;1.00;;;;;;5064518;28;20622;-81
2022/08/23 07:51:53;;;;;;;6.65;2.97;;;24.50;12.90;;;;;;5055080;28;20202;-81
2022/08/23 07:54:21;;;;;;;4.20;1.92;;;24.50;10.20;;;;;;5062560;28;20292;-81
2022/08/23 07:56:48;;;;;;;7.03;2.00;;;24.70;1.00;;;;;;5055378;28;20280;-81
2022/08/23 07:59:16;;;;;;;5.35;1.90;;;24.90;1.00;;;;;;5047750;28;20786;-80
2022/08/23 08:01:44;;;;;;;3.55;2.00;;;25.30;1.00;;;;;;5048690;28;20204;-80
2022/08/23 08:04:11;;;;;;;4.75;2.30;;;25.70;1.00;;;;;;5047890;28;20206;-78
2022/08/23 08:06:42;;;;;;;6.30;2.13;;;26.10;1.00;;;;;;5048678;28;20217;-79
2022/08/23 08:09:11;;;;;;;3.30;1.80;;;26.40;1.00;;;;;;5047300;28;20228;-80
2022/08/23 08:11:40;;;;;;;7.47;2.65;;;26.30;1.00;;;;;;5048631;28;20820;-79
2022/08/23 08:14:09;;;;;;;4.05;2.53;;;26.20;1.00;;;;;;5046803;28;20645;-76
2022/08/23 08:16:40;;;;;;;3.97;2.05;;;26.10;1.00;;;;;;5050078;28;20206;-78
2022/08/23 08:19:09;;;;;;;3.40;1.95;;;25.80;1.00;;;;;;5048149;28;20642;-78
2022/08/23 08:21:38;;;;;;;4.50;2.08;;;25.70;1.00;;;;;;5052364;28;20206;-79
2022/08/23 08:24:07;;;;;;;4.57;2.10;;;25.60;1.00;;;;;;5052870;28;20224;-77
2022/08/23 08:26:34;;;;;;;6.13;2.08;;;25.60;1.00;;;;;;5048480;28;20635;-78
2022/08/23 08:29:01;;;;;;;4.05;2.10;;;25.50;1.00;;;;;;5045878;28;20273;-77
2022/08/23 08:31:28;;;;;;;6.90;2.50;;;25.50;1.00;;;;;;5047971;28;20210;-78
2022/08/23 08:33:56;;;;;;;8.02;2.70;;;25.60;1.00;;;;;;5051723;28;20679;-78
2022/08/23 08:36:33;;;;;;;4.68;2.03;;;25.70;1.00;;;;;;5039326;28;20210;-80
2022/08/23 08:39:00;;;;;;;5.55;2.60;;;25.80;1.00;;;;;;5033968;28;20465;-78
2022/08/23 08:41:40;;;;;;;4.15;2.40;;;25.90;1.00;;;;;;5033262;28;20203;-83
2022/08/23 08:44:14;;;;;;;5.68;2.45;;;25.90;1.00;;;;;;5033413;28;20198;-81
2022/08/23 08:46:45;;;;;;;5.32;2.33;;;25.90;1.00;;;;;;5031746;28;20225;-79
2022/08/23 08:49:20;;;;;;;4.07;2.28;;;25.90;1.00;;;;;;5032324;28;20337;-81
2022/08/23 08:51:53;;;;;;;5.40;2.50;;;25.90;1.00;;;;;;5035585;28;20194;-80
2022/08/23 08:54:24;;;;;;;3.78;2.17;;;25.90;1.00;;;;;;5052193;28;20186;-81
2022/08/23 08:56:53;;;;;;;5.80;2.60;;;25.90;1.00;;;;;;5053174;28;20205;-87
2022/08/23 08:59:23;;;;;;;4.57;2.25;;;25.80;1.00;;;;;;5054300;28;20300;-86
2022/08/23 09:01:51;;;;;;;4.90;2.25;;;25.70;1.00;;;;;;5053806;28;20212;-88
2022/08/23 09:04:21;;;;;;;3.97;1.92;;;25.70;1.00;;;;;;5054119;28;20190;-87
2022/08/23 09:06:53;;;;;;;3.97;2.10;;;25.70;1.00;;;;;;5038058;28;20210;-85
2022/08/23 09:09:39;;;;;;;5.03;1.70;;;25.70;1.00;;;;;;5034273;28;20207;-88
2022/08/23 09:12:16;;;;;;;4.50;2.15;;;25.70;1.00;;;;;;5034290;28;20203;-89
2022/08/23 09:15:03;;;;;;;3.40;2.08;;;25.70;1.00;;;;;;5033783;28;20235;-87
2022/08/23 09:17:37;;;;;;;2.95;1.60;;;25.80;1.00;;;;;;5033926;28;20216;-87
2022/08/23 09:20:07;;;;;;;3.28;1.65;;;25.80;1.00;;;;;;5034110;28;20281;-88
2022/08/23 09:22:37;;;;;;;3.83;1.80;;;25.70;1.00;;;;;;5033951;28;20657;-88
2022/08/23 09:25:05;;;;;;;2.63;1.58;;;25.70;1.00;;;;;;5034181;28;20285;-88
2022/08/23 09:27:32;;;;;;;2.45;1.17;;;25.80;1.00;;;;;;5034191;28;20547;-88
2022/08/23 09:30:01;;;;;;;2.92;1.63;;;25.80;1.00;;;;;;5033981;28;20230;-89
2022/08/23 09:32:32;;;;;;;3.30;1.92;;;25.80;1.00;;;;;;5033851;28;20203;-88
2022/08/23 09:35:10;;;;;;;3.00;1.65;;;25.90;1.00;;;;;;5034003;28;20218;-88
2022/08/23 09:37:58;;;;;;;5.03;1.92;;;25.90;1.00;;;;;;5033410;28;20207;-89
2022/08/23 09:40:38;;;;;;;4.00;1.75;;;25.80;1.00;;;;;;5033312;28;20206;-86
2022/08/23 09:43:11;;;;;;;3.03;1.58;;;25.80;1.00;;;;;;5033549;28;20539;-87
2022/08/23 09:45:42;;;;;;;2.53;1.55;;;25.80;1.00;;;;;;5034419;28;20552;-87
2022/08/23 09:48:14;;;;;;;4.03;1.52;;;25.90;1.00;;;;;;5035131;28;20199;-90
2022/08/23 09:50:49;;;;;;;3.03;1.50;;;26.00;1.00;;;;;;5037336;28;20210;-87
2022/08/23 09:53:23;;;;;;;3.67;1.55;;;26.00;1.00;;;;;;5037468;28;20205;-87
2022/08/23 09:55:53;;;;;;;2.70;1.50;;;26.00;1.00;;;;;;5037261;28;20198;-88
2022/08/23 09:58:30;;;;;;;4.25;1.83;;;26.00;1.00;;;;;;5037144;28;20802;-89
2022/08/23 10:01:10;;;;;;;2.92;1.60;;;26.00;1.00;;;;;;5037629;28;20216;-86
2022/08/23 10:03:38;;;;;;;6.63;1.95;;;26.00;1.00;;;;;;5037224;28;20225;-88
2022/08/23 10:06:08;;;;;;;4.10;2.00;;;26.10;1.00;;;;;;5037054;28;20788;-90
2022/08/23 10:08:37;;;;;;;4.43;1.80;;;26.10;1.00;;;;;;5037067;28;20209;-89
2022/08/23 10:11:13;;;;;;;3.85;1.60;;;26.20;1.00;;;;;;5036817;28;20225;-88
2022/08/23 10:13:42;;;;;;;3.75;1.70;;;26.30;1.00;;;;;;5036806;28;20221;-89
2022/08/23 10:16:16;;;;;;;2.67;1.50;;;26.40;1.00;;;;;;5036886;28;20231;-89
2022/08/23 10:18:53;;;;;;;2.83;1.50;;;26.50;1.00;;;;;;5036659;28;20655;-86
2022/08/23 10:21:29;;;;;;;3.80;1.70;;;26.60;99.90;;;;;;5036377;28;20210;-89
2022/08/23 10:24:23;;;;;;;3.67;1.60;;;26.60;99.90;;;;;;5035064;28;20224;-88
2022/08/23 10:29:35;;;;;;;2.30;1.65;;;26.70;99.90;;;;;;5036004;28;20195;-88
2022/08/23 10:30:01;;;;;;;2.83;1.60;;;26.70;99.90;;;;;;5037401;28;20567;-89
2022/08/23 10:32:37;;;;;;;2.30;1.30;;;26.70;1.00;;;;;;5048808;28;20335;-88
2022/08/23 10:35:21;;;;;;;3.03;1.27;;;26.80;1.00;;;;;;5036356;28;20634;-89
2022/08/23 10:38:11;;;;;;;2.35;1.40;;;26.70;99.90;;;;;;5036584;28;20190;-89
2022/08/23 10:40:42;;;;;;;2.92;1.23;;;26.60;1.00;;;;;;5036676;28;20246;-90
2022/08/23 10:43:24;;;;;;;3.30;1.20;;;26.70;1.00;;;;;;5035773;28;20190;-88
2022/08/23 10:45:52;;;;;;;3.10;1.40;;;26.70;1.00;;;;;;5036083;28;20195;-87
2022/08/23 10:48:27;;;;;;;2.78;1.40;;;26.80;1.00;;;;;;5045015;28;20212;-88
2022/08/23 10:50:57;;;;;;;2.17;1.23;;;26.90;99.90;;;;;;5057025;28;20209;-90
2022/08/23 10:53:33;;;;;;;3.60;1.35;;;27.00;99.90;;;;;;5055924;28;20616;-88
2022/08/23 10:56:04;;;;;;;5.05;1.88;;;27.20;1.00;;;;;;5054438;28;20217;-88
2022/08/23 10:58:38;;;;;;;3.33;1.60;;;27.40;1.00;;;;;;5054469;28;20606;-88
2022/08/23 11:01:07;;;;;;;2.90;1.80;;;27.70;1.00;;;;;;5056585;28;20222;-83
2022/08/23 11:03:41;;;;;;;4.28;1.65;;;27.90;99.90;;;;;;5047239;28;20203;-88
2022/08/23 11:06:28;;;;;;;2.30;1.23;;;28.10;3.50;;;;;;5035849;28;20190;-89
2022/08/23 11:09:04;;;;;;;2.53;1.52;;;28.30;1.00;;;;;;5034114;28;20206;-90
2022/08/23 11:11:42;;;;;;;2.58;1.20;;;28.30;1.00;;;;;;5033279;28;20301;-87
2022/08/23 11:14:12;;;;;;;1.50;1.08;;;28.30;99.90;;;;;;5048035;28;20202;-89
2022/08/23 11:16:45;;;;;;;2.45;1.20;;;28.30;99.90;;;;;;5055112;28;20182;-87
2022/08/23 11:19:14;;;;;;;3.67;1.10;;;28.30;99.90;;;;;;5057590;22;20226;-83
2022/08/23 11:21:45;;;;;;;2.60;1.30;;;28.50;99.90;;;;;;5013613;28;20218;-85
2022/08/23 11:24:57;;;;;;;3.60;2.25;;;28.50;1.00;;;;;;5013863;28;20203;-82
2022/08/23 11:27:33;;;;;;;4.07;2.10;;;28.70;1.00;;;;;;5003236;28;20745;-83
2022/08/23 11:30:33;;;;;;;5.93;2.33;;;28.70;1.00;;;;;;5014112;28;20230;-87
2022/08/23 11:33:09;;;;;;;6.65;3.53;;;28.70;1.00;;;;;;5008576;28;20265;-84
2022/08/23 11:35:43;;;;;;;6.53;3.05;;;28.40;1.00;;;;;;5012521;28;20191;-85
2022/08/23 11:38:11;;;;;;;6.50;3.60;;;28.20;1.00;;;;;;5014102;28;20203;-84
2022/08/23 11:40:59;;;;;;;7.65;3.60;;;28.10;1.00;;;;;;5019970;28;20203;-85
2022/08/23 11:43:32;;;;;;;5.82;2.55;;;28.00;1.00;;;;;;5031628;28;20210;-83
2022/08/23 11:46:16;;;;;;;3.65;2.28;;;27.90;6.70;;;;;;5032910;28;20213;-81
2022/08/23 11:48:49;;;;;;;5.53;1.90;;;27.90;65.30;;;;;;5030647;28;20202;-84
2022/08/23 11:51:26;;;;;;;3.25;1.73;;;27.80;99.90;;;;;;5032933;28;20219;-81
2022/08/23 11:54:26;;;;;;;2.05;1.08;;;27.70;99.90;;;;;;5033743;28;20191;-79
2022/08/23 11:57:11;;;;;;;3.35;1.20;;;27.50;1.00;;;;;;5018286;28;20278;-81
2022/08/23 12:00:15;;;;;;;5.15;1.35;;;27.50;87.10;;;;;;5013758;28;20187;-83
2022/08/23 12:02:51;;;;;;;3.22;1.25;;;27.60;99.90;;;;;;5013366;28;20286;-85
2022/08/23 12:05:32;;;;;;;3.15;1.55;;;27.70;23.50;;;;;;5012951;28;20203;-82
2022/08/23 12:08:29;;;;;;;2.33;1.48;;;27.80;99.90;;;;;;5013845;28;20211;-82
2022/08/23 12:11:10;;;;;;;4.95;1.27;;;27.80;69.50;;;;;;5009104;28;20237;-83
2022/08/23 12:13:52;;;;;;;1.45;1.20;;;27.70;58.00;;;;;;5014408;28;20501;-81
2022/08/23 12:16:43;;;;;;;3.40;1.38;;;27.80;99.90;;;;;;5014460;28;20191;-83
2022/08/23 12:19:18;;;;;;;2.65;1.35;;;28.00;99.90;;;;;;4998642;28;20321;-81
2022/08/23 12:21:48;;;;;;;2.15;1.20;;;28.00;99.90;;;;;;5012830;28;20210;-80
2022/08/23 12:24:24;;;;;;;1.63;1.10;;;28.10;99.90;;;;;;5013836;28;20213;-81
2022/08/23 12:27:00;;;;;;;1.52;1.10;;;28.20;57.40;;;;;;5014069;28;20195;-84
2022/08/23 12:29:52;;;;;;;3.15;1.15;;;28.30;25.30;;;;;;5012544;28;20672;-84
2022/08/23 12:32:26;;;;;;;1.70;1.10;;;28.50;19.40;;;;;;5013871;28;20234;-83
2022/08/23 12:35:09;;;;;;;2.88;1.88;;;28.60;1.00;;;;;;5014303;28;20789;-85
2022/08/23 12:37:43;;;;;;;3.33;1.67;;;28.70;1.00;;;;;;5014123;28;20571;-84
2022/08/23 12:40:15;;;;;;;4.97;1.73;;;28.60;1.00;;;;;;5014231;28;20192;-86
2022/08/23 12:42:42;;;;;;;4.75;2.03;;;28.60;1.00;;;;;;5023495;28;20233;-84
2022/08/23 12:45:17;;;;;;;4.93;2.00;;;28.60;1.00;;;;;;5033861;28;20203;-84
2022/08/23 12:47:56;;;;;;;4.07;2.17;;;28.50;1.00;;;;;;5033544;28;20297;-85
2022/08/23 12:50:27;;;;;;;4.53;2.50;;;28.50;1.00;;;;;;5031140;28;20206;-84
2022/08/23 12:52:59;;;;;;;6.20;3.00;;;28.50;1.00;;;;;;5013735;28;20203;-86
2022/08/23 12:55:31;;;;;;;4.75;2.42;;;28.50;1.00;;;;;;5014173;28;20192;-85
2022/08/23 12:57:58;;;;;;;4.28;1.90;;;28.50;1.00;;;;;;5014719;28;20191;-84
2022/08/23 13:00:30;;;;;;;4.38;2.15;;;28.50;1.00;;;;;;5013636;28;20207;-86
2022/08/23 13:03:01;;;;;;;3.58;1.80;;;28.40;1.00;;;;;;5014355;28;20186;-85
2022/08/23 13:05:35;;;;;;;4.28;2.20;;;28.30;1.00;;;;;;5014379;28;20580;-87
2022/08/23 13:08:05;;;;;;;3.40;1.90;;;28.30;1.00;;;;;;5013135;28;20211;-78
2022/08/23 13:10:32;;;;;;;5.40;2.20;;;28.30;1.00;;;;;;5012376;28;20230;-85
2022/08/23 13:13:00;;;;;;;8.45;3.00;;;28.40;1.00;;;;;;5012201;28;20213;-81
2022/08/23 13:15:50;;;;;;;4.13;2.10;;;28.40;1.00;;;;;;5011991;28;20203;-86
2022/08/23 13:18:25;;;;;;;5.18;2.55;;;28.40;1.00;;;;;;5012487;28;20527;-81